Time;durP1;ratioP1;P1;durP2;ratioP2;P2;SDS_P1;SDS_P2;PMS_P1;PMS_P2;Temp;Humidity;BMP_temperature;BMP_pressure;BME280_temperature;BME280_humidity;BME280_pressure;Samples;Min_cycle;Max_cycle;Signal;HPM_P1;HPM_P2
2022/12/06 00:01:36;;;;;;;16.42;6.07;;;5.10;99.90;;;;;;5081109;28;20559;-83
2022/12/06 00:04:06;;;;;;;14.77;6.13;;;5.10;99.90;;;;;;5086699;28;20409;-84
2022/12/06 00:06:36;;;;;;;17.73;6.93;;;5.10;99.90;;;;;;5085034;28;20051;-84
2022/12/06 00:09:02;;;;;;;17.30;6.63;;;5.10;99.90;;;;;;5084651;28;20074;-84
2022/12/06 00:11:30;;;;;;;14.57;6.03;;;5.10;99.90;;;;;;5104622;28;20067;-82
2022/12/06 00:14:01;;;;;;;25.58;6.32;;;5.10;99.90;;;;;;5092091;28;20484;-82
2022/12/06 00:16:28;;;;;;;23.45;6.85;;;5.10;99.90;;;;;;5094418;28;20134;-83
2022/12/06 00:18:54;;;;;;;22.23;6.97;;;5.10;99.90;;;;;;5107716;28;20039;-82
2022/12/06 00:21:28;;;;;;;16.63;6.22;;;5.10;99.90;;;;;;5074522;28;20060;-82
2022/12/06 00:23:59;;;;;;;16.30;6.40;;;5.10;99.90;;;;;;5091950;28;20108;-83
2022/12/06 00:26:26;;;;;;;14.52;6.32;;;5.00;99.90;;;;;;5091370;28;20112;-82
2022/12/06 00:28:54;;;;;;;16.30;6.30;;;5.10;99.90;;;;;;5109110;28;20046;-83
2022/12/06 00:31:22;;;;;;;20.42;6.00;;;5.00;99.90;;;;;;5102917;28;20044;-82
2022/12/06 00:33:49;;;;;;;18.75;6.32;;;5.00;99.90;;;;;;5108562;28;20122;-82
2022/12/06 00:36:26;;;;;;;16.40;6.15;;;5.10;99.90;;;;;;5077337;28;20367;-82
2022/12/06 00:38:52;;;;;;;18.70;6.07;;;5.00;99.90;;;;;;5091699;28;20112;-82
2022/12/06 00:41:20;;;;;;;15.38;6.00;;;5.00;99.90;;;;;;5066682;28;20052;-82
2022/12/06 00:43:47;;;;;;;16.20;5.93;;;5.00;99.90;;;;;;5087008;28;20457;-82
2022/12/06 00:46:16;;;;;;;15.75;6.05;;;4.90;99.90;;;;;;5071533;28;20081;-83
2022/12/06 00:48:46;;;;;;;14.05;5.57;;;4.90;99.90;;;;;;5070620;28;20079;-83
2022/12/06 00:51:14;;;;;;;18.40;6.55;;;4.90;99.90;;;;;;5084869;28;20070;-84
2022/12/06 00:53:40;;;;;;;16.92;5.95;;;4.80;99.90;;;;;;5088854;28;20075;-83
2022/12/06 00:56:06;;;;;;;19.55;5.95;;;4.70;99.90;;;;;;5071629;28;20078;-82
2022/12/06 00:58:32;;;;;;;16.90;5.40;;;4.70;99.90;;;;;;5061719;28;20508;-82
2022/12/06 01:01:14;;;;;;;19.40;5.88;;;4.70;99.90;;;;;;5086420;28;20052;-82
2022/12/06 01:03:41;;;;;;;17.83;5.25;;;4.70;99.90;;;;;;5070439;28;20056;-82
2022/12/06 01:06:09;;;;;;;17.85;5.80;;;4.70;99.90;;;;;;5090161;28;20050;-84
2022/12/06 01:08:35;;;;;;;17.15;6.13;;;4.70;99.90;;;;;;5114395;27;20044;-82
2022/12/06 01:11:02;;;;;;;17.42;6.00;;;4.80;99.90;;;;;;5089836;28;20044;-83
2022/12/06 01:13:28;;;;;;;17.33;5.55;;;4.80;99.90;;;;;;5087002;28;20075;-82
2022/12/06 01:15:54;;;;;;;14.23;5.93;;;4.80;99.90;;;;;;5086794;28;20640;-82
2022/12/06 01:18:20;;;;;;;17.13;5.28;;;4.80;99.90;;;;;;5067566;28;20036;-82
2022/12/06 01:20:46;;;;;;;19.13;5.97;;;4.80;99.90;;;;;;5080338;28;20509;-82
2022/12/06 01:23:12;;;;;;;16.85;5.85;;;4.90;99.90;;;;;;5087583;28;20094;-85
2022/12/06 01:25:38;;;;;;;16.02;5.53;;;4.90;99.90;;;;;;5070823;28;20044;-82
2022/12/06 01:28:04;;;;;;;18.13;5.35;;;4.90;99.90;;;;;;5070554;28;20539;-82
2022/12/06 01:30:30;;;;;;;15.02;5.10;;;4.90;99.90;;;;;;5085132;28;20094;-82
2022/12/06 01:32:56;;;;;;;11.90;4.78;;;4.90;99.90;;;;;;5086274;28;20055;-82
2022/12/06 01:35:21;;;;;;;16.15;6.10;;;4.90;99.90;;;;;;5087192;28;20671;-82
2022/12/06 01:37:47;;;;;;;14.02;4.65;;;4.90;99.90;;;;;;5086407;28;20138;-82
2022/12/06 01:40:13;;;;;;;17.67;5.18;;;4.90;99.90;;;;;;5097485;28;20076;-82
2022/12/06 01:42:39;;;;;;;15.45;5.20;;;5.00;99.90;;;;;;5123009;28;20059;-82
2022/12/06 01:45:05;;;;;;;11.75;4.10;;;5.00;99.90;;;;;;5073168;28;20050;-83
2022/12/06 01:47:40;;;;;;;12.95;3.85;;;4.90;99.90;;;;;;5106808;28;20059;-83
2022/12/06 01:50:17;;;;;;;12.03;4.37;;;4.90;99.90;;;;;;5106289;28;20499;-83
2022/12/06 01:53:10;;;;;;;9.63;3.55;;;4.90;99.90;;;;;;5103700;28;20304;-83
2022/12/06 01:55:37;;;;;;;13.95;4.00;;;4.90;99.90;;;;;;5103414;28;20048;-83
2022/12/06 01:58:11;;;;;;;9.35;3.42;;;4.90;99.90;;;;;;5107616;28;20047;-82
2022/12/06 02:00:37;;;;;;;9.10;3.00;;;4.90;99.90;;;;;;5087558;28;20050;-82
2022/12/06 02:03:07;;;;;;;14.85;3.28;;;4.90;99.90;;;;;;5107578;28;20039;-83
2022/12/06 02:05:35;;;;;;;7.45;2.55;;;4.90;99.90;;;;;;5105613;28;20047;-82
2022/12/06 02:08:01;;;;;;;7.60;2.55;;;4.90;99.90;;;;;;5123661;28;20722;-82
2022/12/06 02:10:28;;;;;;;6.95;2.50;;;4.80;99.90;;;;;;5103823;28;20176;-83
2022/12/06 02:12:56;;;;;;;7.75;2.28;;;4.80;99.90;;;;;;5074216;28;20050;-83
2022/12/06 02:15:33;;;;;;;7.95;2.65;;;4.80;99.90;;;;;;5086187;28;20043;-83
2022/12/06 02:18:16;;;;;;;6.63;1.80;;;4.80;99.90;;;;;;5109582;28;20088;-82
2022/12/06 02:20:52;;;;;;;6.85;1.90;;;4.80;99.90;;;;;;5111252;28;20298;-82
2022/12/06 02:23:52;;;;;;;5.15;2.10;;;4.80;99.90;;;;;;5101406;27;20440;-82
2022/12/06 02:26:27;;;;;;;7.72;2.15;;;4.80;99.90;;;;;;5093881;28;20051;-82
2022/12/06 02:28:53;;;;;;;3.28;2.17;;;4.80;99.90;;;;;;5125720;27;20048;-82
2022/12/06 02:31:30;;;;;;;4.95;1.80;;;4.80;99.90;;;;;;5087694;28;20049;-82
2022/12/06 02:34:04;;;;;;;7.65;2.00;;;4.70;99.90;;;;;;5112233;27;20454;-82
2022/12/06 02:36:56;;;;;;;6.10;1.85;;;4.70;99.90;;;;;;5118446;27;20053;-83
2022/12/06 02:39:41;;;;;;;3.65;1.67;;;4.70;99.90;;;;;;5084103;27;20055;-82
2022/12/06 02:42:27;;;;;;;2.58;1.30;;;4.70;99.90;;;;;;5094862;27;20047;-83
2022/12/06 02:44:56;;;;;;;5.47;1.35;;;4.70;99.90;;;;;;5094103;27;20046;-82
2022/12/06 02:47:29;;;;;;;3.72;1.33;;;4.70;99.90;;;;;;5095629;27;20055;-83
2022/12/06 02:49:56;;;;;;;2.72;1.27;;;4.70;99.90;;;;;;5097595;27;20459;-83
2022/12/06 02:52:26;;;;;;;3.92;1.52;;;4.70;99.90;;;;;;5094101;27;20043;-83
2022/12/06 02:54:55;;;;;;;3.30;1.10;;;4.60;99.90;;;;;;5117413;27;20174;-82
2022/12/06 02:57:33;;;;;;;4.45;1.05;;;4.60;99.90;;;;;;5094701;27;20042;-82
2022/12/06 02:59:59;;;;;;;3.20;1.00;;;4.60;99.90;;;;;;5112134;27;20053;-82
2022/12/06 03:02:25;;;;;;;11.20;1.17;;;4.60;99.90;;;;;;5095097;27;20130;-82
2022/12/06 03:05:02;;;;;;;3.33;1.20;;;4.50;99.90;;;;;;5063356;27;20035;-82
2022/12/06 03:07:40;;;;;;;2.83;1.10;;;4.50;99.90;;;;;;5092770;27;20500;-86
2022/12/06 03:10:28;;;;;;;3.60;1.20;;;4.50;99.90;;;;;;5085599;28;20517;-82
2022/12/06 03:13:13;;;;;;;4.53;1.23;;;4.50;99.90;;;;;;5093877;27;20123;-82
2022/12/06 03:15:57;;;;;;;3.53;1.58;;;4.50;99.90;;;;;;5128091;27;20074;-83
2022/12/06 03:18:53;;;;;;;5.47;1.20;;;4.50;99.90;;;;;;5139660;27;20110;-83
2022/12/06 03:21:36;;;;;;;2.75;1.30;;;4.50;99.90;;;;;;5094943;27;20050;-83
2022/12/06 03:24:05;;;;;;;4.75;1.20;;;4.50;99.90;;;;;;5096197;27;20097;-83
2022/12/06 03:26:33;;;;;;;2.25;1.00;;;4.50;99.90;;;;;;5113103;27;20391;-84
2022/12/06 03:29:00;;;;;;;3.78;1.33;;;4.50;99.90;;;;;;5095432;27;20039;-83
2022/12/06 03:31:30;;;;;;;4.68;1.25;;;4.60;99.90;;;;;;5098370;27;20081;-82
2022/12/06 03:34:01;;;;;;;4.35;1.35;;;4.50;99.90;;;;;;5112347;27;20047;-82
2022/12/06 03:36:28;;;;;;;4.40;1.33;;;4.60;99.90;;;;;;5112778;27;20106;-82
2022/12/06 03:39:01;;;;;;;6.38;1.33;;;4.50;99.90;;;;;;5095166;27;20051;-82
2022/12/06 03:41:33;;;;;;;4.68;1.45;;;4.50;99.90;;;;;;5092469;27;20059;-82
2022/12/06 03:43:59;;;;;;;4.13;1.75;;;4.60;99.90;;;;;;5113339;27;20041;-81
2022/12/06 03:46:37;;;;;;;4.35;1.80;;;4.60;99.90;;;;;;5116375;27;20126;-83
2022/12/06 03:49:27;;;;;;;4.55;1.70;;;4.50;99.90;;;;;;5095783;27;20051;-82
2022/12/06 03:51:53;;;;;;;3.25;1.80;;;4.50;99.90;;;;;;5113204;27;20043;-82
2022/12/06 03:54:19;;;;;;;5.55;1.80;;;4.50;99.90;;;;;;5095722;27;20130;-83
2022/12/06 03:56:44;;;;;;;3.53;1.67;;;4.50;99.90;;;;;;5094839;27;20575;-84
2022/12/06 03:59:10;;;;;;;7.65;2.40;;;4.50;99.90;;;;;;5112201;27;20080;-83
2022/12/06 04:01:37;;;;;;;4.90;1.77;;;4.50;99.90;;;;;;5095498;27;20049;-85
2022/12/06 04:04:03;;;;;;;7.05;2.10;;;4.60;99.90;;;;;;5112445;27;20681;-82
2022/12/06 04:06:29;;;;;;;9.25;2.55;;;4.60;99.90;;;;;;5091099;27;20043;-83
2022/12/06 04:09:51;;;;;;;6.18;2.03;;;4.60;99.90;;;;;;5094792;27;20096;-82
2022/12/06 04:11:41;;;;;;;5.13;2.30;;;4.60;99.90;;;;;;5106991;28;20427;-82
2022/12/06 04:14:06;;;;;;;5.70;2.08;;;4.60;99.90;;;;;;5080094;27;20047;-82
2022/12/06 04:19:16;;;;;;;7.05;2.38;;;4.50;99.90;;;;;;5130685;27;20078;-83
2022/12/06 04:24:26;;;;;;;8.50;2.47;;;4.60;99.90;;;;;;5111801;27;20043;-84
2022/12/06 04:28:40;;;;;;;6.32;2.50;;;4.50;99.90;;;;;;5076281;27;20502;-82
2022/12/06 04:40:34;;;;;;;10.48;2.78;;;4.10;99.90;;;;;;5080282;27;20086;-82
2022/12/06 04:45:43;;;;;;;12.85;2.90;;;4.20;99.90;;;;;;5084064;27;20125;-83
2022/12/06 04:48:10;;;;;;;6.07;3.13;;;4.10;99.90;;;;;;5098455;27;20503;-83
2022/12/06 04:50:35;;;;;;;8.30;3.13;;;4.10;99.90;;;;;;5113670;27;20068;-82
2022/12/06 04:53:01;;;;;;;10.63;2.67;;;3.90;99.90;;;;;;5092012;27;20115;-82
2022/12/06 04:55:27;;;;;;;10.45;3.22;;;3.80;99.90;;;;;;5051084;28;20063;-83
2022/12/06 04:57:53;;;;;;;7.85;3.20;;;3.60;99.90;;;;;;5061550;27;20046;-82
2022/12/06 05:00:19;;;;;;;12.90;3.15;;;3.60;99.90;;;;;;5094871;27;20035;-81
2022/12/06 05:02:45;;;;;;;12.57;3.30;;;3.50;99.90;;;;;;5089829;28;20129;-83
2022/12/06 05:05:11;;;;;;;8.95;3.35;;;3.40;99.90;;;;;;5082358;27;20114;-82
2022/12/06 05:07:36;;;;;;;11.98;3.75;;;3.40;99.90;;;;;;5094486;28;20511;-81
2022/12/06 05:10:02;;;;;;;13.20;4.07;;;3.40;99.90;;;;;;5077356;27;20055;-82
2022/12/06 05:12:28;;;;;;;10.52;4.32;;;3.40;99.90;;;;;;5110459;27;20043;-83
2022/12/06 05:14:54;;;;;;;15.50;5.13;;;3.40;99.90;;;;;;5087119;27;20039;-82
2022/12/06 05:17:19;;;;;;;15.38;5.88;;;3.40;99.90;;;;;;5105837;27;20396;-81
2022/12/06 05:19:45;;;;;;;12.30;4.78;;;3.40;99.90;;;;;;5087309;27;20515;-82
2022/12/06 05:22:10;;;;;;;13.35;4.50;;;3.40;99.90;;;;;;5103917;27;20039;-80
2022/12/06 05:24:36;;;;;;;14.25;5.50;;;3.40;99.90;;;;;;5047164;28;20039;-81
2022/12/06 05:27:02;;;;;;;13.60;4.63;;;3.30;99.90;;;;;;5074132;28;20043;-82
2022/12/06 05:29:27;;;;;;;12.27;4.53;;;3.30;99.90;;;;;;5086396;27;20043;-81
2022/12/06 05:31:53;;;;;;;15.07;4.30;;;3.30;99.90;;;;;;5102196;28;20492;-80
2022/12/06 05:34:19;;;;;;;16.00;4.18;;;3.20;99.90;;;;;;5085128;27;20040;-80
2022/12/06 05:36:44;;;;;;;12.75;4.90;;;3.20;99.90;;;;;;5051307;27;20047;-82
2022/12/06 05:39:10;;;;;;;12.38;4.00;;;3.20;99.90;;;;;;5104471;27;20046;-82
2022/12/06 05:41:36;;;;;;;15.18;4.90;;;3.20;99.90;;;;;;5088078;28;20051;-80
2022/12/06 05:44:02;;;;;;;13.13;4.32;;;3.20;99.90;;;;;;5092735;28;20043;-81
2022/12/06 05:46:27;;;;;;;15.75;4.53;;;3.10;99.90;;;;;;5071491;28;20085;-80
2022/12/06 05:48:53;;;;;;;15.40;3.92;;;3.20;99.90;;;;;;5075439;28;20055;-81
2022/12/06 05:51:18;;;;;;;15.15;5.15;;;3.10;99.90;;;;;;5091462;27;20043;-81
2022/12/06 05:53:44;;;;;;;9.80;3.67;;;3.10;99.90;;;;;;5108207;27;20039;-81
2022/12/06 05:56:11;;;;;;;11.75;3.95;;;3.10;99.90;;;;;;5077006;27;20088;-80
2022/12/06 05:58:38;;;;;;;12.32;4.10;;;3.20;99.90;;;;;;5094988;27;20074;-80
2022/12/06 06:01:05;;;;;;;19.48;6.25;;;3.30;99.90;;;;;;5115185;27;20043;-80
2022/12/06 06:03:31;;;;;;;14.05;5.47;;;3.30;99.90;;;;;;5097693;27;20061;-80
2022/12/06 06:05:59;;;;;;;23.90;7.25;;;3.40;99.90;;;;;;5076864;27;20495;-83
2022/12/06 06:08:26;;;;;;;19.20;5.38;;;3.40;99.90;;;;;;5088063;27;20043;-82
2022/12/06 06:10:52;;;;;;;15.38;5.88;;;3.50;99.90;;;;;;5089726;27;20433;-81
2022/12/06 06:13:17;;;;;;;9.93;4.95;;;3.50;99.90;;;;;;5109723;27;20046;-82
2022/12/06 06:15:43;;;;;;;11.45;4.68;;;3.50;99.90;;;;;;5095121;27;20031;-81
2022/12/06 06:18:09;;;;;;;13.68;5.40;;;3.60;99.90;;;;;;5063679;27;20130;-82
2022/12/06 06:20:34;;;;;;;14.68;5.28;;;3.60;99.90;;;;;;5089565;27;20488;-83
2022/12/06 06:23:00;;;;;;;15.57;5.40;;;3.60;99.90;;;;;;5080055;27;20413;-81
2022/12/06 06:25:26;;;;;;;16.70;7.03;;;3.60;99.90;;;;;;5115620;27;20498;-81
2022/12/06 06:27:52;;;;;;;17.30;7.00;;;3.50;99.90;;;;;;5115077;27;20043;-83
2022/12/06 06:30:18;;;;;;;18.15;6.50;;;3.50;99.90;;;;;;5115577;27;20118;-83
2022/12/06 06:32:43;;;;;;;17.35;6.70;;;3.40;99.90;;;;;;5097333;27;20154;-82
2022/12/06 06:35:09;;;;;;;11.85;5.47;;;3.40;99.90;;;;;;5077008;28;20046;-80
2022/12/06 06:37:34;;;;;;;28.67;10.90;;;3.40;99.90;;;;;;5078697;27;20035;-81
2022/12/06 06:40:01;;;;;;;34.58;13.00;;;3.40;99.90;;;;;;5123517;27;20524;-81
2022/12/06 06:42:27;;;;;;;46.90;15.35;;;3.40;99.90;;;;;;5085524;27;20199;-81
2022/12/06 06:44:55;;;;;;;36.58;15.25;;;3.40;99.90;;;;;;5097920;27;20122;-81
2022/12/06 06:47:22;;;;;;;33.45;13.60;;;3.30;99.90;;;;;;5103069;27;20055;-82
2022/12/06 06:49:47;;;;;;;33.05;13.73;;;3.20;99.90;;;;;;5117316;27;20047;-82
2022/12/06 06:52:13;;;;;;;24.15;11.90;;;3.10;99.90;;;;;;5083907;27;20058;-83
2022/12/06 06:54:39;;;;;;;27.15;12.70;;;3.00;99.90;;;;;;5095700;27;20031;-83
2022/12/06 06:57:05;;;;;;;27.95;12.27;;;2.90;99.90;;;;;;5084240;27;20052;-83
2022/12/06 06:59:30;;;;;;;71.75;33.35;;;2.80;99.90;;;;;;5114607;27;20515;-82
2022/12/06 07:01:56;;;;;;;82.97;34.35;;;2.80;99.90;;;;;;5084054;27;20050;-82
2022/12/06 07:04:22;;;;;;;44.53;18.65;;;2.90;99.90;;;;;;5097018;27;20131;-84
2022/12/06 07:06:47;;;;;;;30.75;13.48;;;2.90;99.90;;;;;;5079857;27;20484;-82
2022/12/06 07:09:13;;;;;;;52.65;18.25;;;2.90;99.90;;;;;;5079608;27;20142;-83
2022/12/06 07:11:39;;;;;;;44.22;18.23;;;2.90;99.90;;;;;;5113833;27;20047;-82
2022/12/06 07:14:05;;;;;;;34.97;18.27;;;2.80;99.90;;;;;;5096310;27;20047;-85
2022/12/06 07:16:30;;;;;;;52.83;25.55;;;2.80;99.90;;;;;;5082775;27;20047;-83
2022/12/06 07:18:56;;;;;;;39.03;16.75;;;2.70;99.90;;;;;;5097161;27;20045;-83
2022/12/06 07:21:24;;;;;;;40.85;19.13;;;2.60;99.90;;;;;;5096125;27;20773;-83
2022/12/06 07:23:50;;;;;;;40.72;21.58;;;2.50;99.90;;;;;;5080496;27;20053;-83
2022/12/06 07:26:19;;;;;;;47.78;24.42;;;2.40;99.90;;;;;;5113111;27;20043;-83
2022/12/06 07:28:46;;;;;;;47.03;23.10;;;2.30;99.90;;;;;;5096738;27;20061;-82
2022/12/06 07:31:11;;;;;;;43.30;17.17;;;2.20;99.90;;;;;;5111448;27;20481;-82
2022/12/06 07:33:38;;;;;;;31.60;13.75;;;2.10;99.90;;;;;;5087960;28;20053;-83
2022/12/06 07:36:05;;;;;;;33.20;16.42;;;2.10;99.90;;;;;;5078036;27;20493;-82
2022/12/06 07:38:30;;;;;;;35.38;14.30;;;2.00;99.90;;;;;;5096704;27;20117;-83
2022/12/06 07:41:01;;;;;;;26.75;13.15;;;2.00;99.90;;;;;;5079164;27;20588;-82
2022/12/06 07:46:11;;;;;;;23.23;9.00;;;1.80;99.90;;;;;;5112414;27;20043;-82
2022/12/06 07:48:37;;;;;;;27.33;10.25;;;1.80;99.90;;;;;;5096705;27;20119;-82
2022/12/06 07:51:04;;;;;;;36.95;18.65;;;1.70;99.90;;;;;;5075800;28;20047;-83
2022/12/06 07:53:29;;;;;;;47.63;23.77;;;1.70;99.90;;;;;;5072131;27;20054;-82
2022/12/06 07:55:55;;;;;;;31.48;13.40;;;1.70;99.90;;;;;;5095517;27;20043;-83
2022/12/06 07:58:21;;;;;;;22.10;7.80;;;1.70;99.90;;;;;;5113054;27;20039;-82
2022/12/06 08:00:47;;;;;;;25.27;8.38;;;1.60;99.90;;;;;;5112921;27;20055;-83
2022/12/06 08:03:12;;;;;;;22.08;8.95;;;1.70;99.90;;;;;;5079734;27;20047;-82
2022/12/06 08:05:38;;;;;;;36.97;16.25;;;1.70;99.90;;;;;;5079156;27;20070;-81
2022/12/06 08:08:04;;;;;;;44.33;22.92;;;1.70;99.90;;;;;;5079611;27;20426;-84
2022/12/06 08:10:29;;;;;;;26.52;11.27;;;1.60;99.90;;;;;;5078951;27;20547;-86
2022/12/06 08:12:55;;;;;;;26.83;10.13;;;1.70;99.90;;;;;;5088486;27;20476;-85
2022/12/06 08:15:21;;;;;;;48.90;18.55;;;1.60;99.90;;;;;;5088027;27;20042;-82
2022/12/06 08:17:46;;;;;;;27.95;11.75;;;1.60;99.90;;;;;;5113303;27;20123;-83
2022/12/06 08:20:12;;;;;;;25.85;10.07;;;1.60;99.90;;;;;;5072530;28;20085;-87
2022/12/06 08:22:38;;;;;;;25.17;9.45;;;1.60;99.90;;;;;;5102607;28;20462;-83
2022/12/06 08:25:04;;;;;;;30.13;9.90;;;1.60;99.90;;;;;;5110544;27;20039;-82
2022/12/06 08:27:29;;;;;;;24.65;7.97;;;1.70;99.90;;;;;;5096021;27;20055;-83
2022/12/06 08:29:55;;;;;;;33.05;9.82;;;1.80;99.90;;;;;;5112806;27;20043;-82
2022/12/06 08:32:20;;;;;;;31.05;12.50;;;1.90;99.90;;;;;;5096023;27;20077;-82
2022/12/06 08:34:46;;;;;;;26.75;10.57;;;1.90;99.90;;;;;;5079426;27;20043;-81
2022/12/06 08:37:12;;;;;;;28.17;12.13;;;2.00;99.90;;;;;;5096224;27;20055;-83
2022/12/06 08:39:37;;;;;;;25.27;12.40;;;2.10;99.90;;;;;;5073710;28;20134;-82
2022/12/06 08:42:05;;;;;;;24.10;9.63;;;2.20;99.90;;;;;;5104982;27;20048;-81
2022/12/06 08:44:31;;;;;;;25.40;9.05;;;2.40;99.90;;;;;;5066157;27;20468;-82
2022/12/06 08:46:59;;;;;;;24.35;10.65;;;2.50;99.90;;;;;;5113386;27;20077;-83
2022/12/06 08:49:26;;;;;;;21.67;11.60;;;2.70;99.90;;;;;;5112079;27;20122;-82
2022/12/06 08:51:52;;;;;;;21.60;10.13;;;2.80;99.90;;;;;;5096299;27;20542;-82
2022/12/06 08:54:21;;;;;;;23.95;10.00;;;2.80;99.90;;;;;;5112338;27;20035;-82
2022/12/06 08:56:47;;;;;;;24.17;10.35;;;3.00;99.90;;;;;;5112795;27;20043;-83
2022/12/06 08:59:13;;;;;;;16.48;7.75;;;3.20;99.90;;;;;;5112905;27;20062;-82
2022/12/06 09:01:40;;;;;;;20.33;8.38;;;3.40;99.90;;;;;;5094504;27;20081;-81
2022/12/06 09:04:07;;;;;;;16.23;7.15;;;3.40;99.90;;;;;;5112466;27;20051;-81
2022/12/06 09:06:35;;;;;;;19.95;7.15;;;3.40;99.90;;;;;;5098580;28;20142;-81
2022/12/06 09:09:00;;;;;;;19.17;7.72;;;3.50;99.90;;;;;;5111491;27;20043;-82
2022/12/06 09:11:26;;;;;;;21.80;9.18;;;3.50;99.90;;;;;;5105885;27;20039;-82
2022/12/06 09:13:52;;;;;;;21.40;9.15;;;3.50;99.90;;;;;;5095182;27;20120;-84
2022/12/06 09:16:20;;;;;;;19.55;9.85;;;3.50;99.90;;;;;;5094510;28;20047;-82
2022/12/06 09:18:47;;;;;;;17.98;9.18;;;3.60;99.90;;;;;;5094455;28;20051;-82
2022/12/06 09:21:19;;;;;;;16.40;7.43;;;3.70;99.90;;;;;;5094472;28;20516;-85
2022/12/06 09:23:45;;;;;;;16.10;6.78;;;3.80;99.90;;;;;;5110523;28;20399;-82
2022/12/06 09:26:10;;;;;;;12.15;6.50;;;4.00;99.90;;;;;;5112870;27;20043;-85
2022/12/06 09:28:38;;;;;;;16.45;7.00;;;4.20;99.90;;;;;;5108846;28;20175;-82
2022/12/06 09:31:05;;;;;;;15.40;6.25;;;4.20;99.90;;;;;;5079674;27;20130;-82
2022/12/06 09:33:31;;;;;;;13.55;6.82;;;4.30;99.90;;;;;;5098804;27;20127;-82
2022/12/06 09:36:00;;;;;;;14.27;5.97;;;4.40;99.90;;;;;;5115536;27;20082;-82
2022/12/06 09:38:27;;;;;;;15.07;6.70;;;4.40;99.90;;;;;;5098430;27;20079;-82
2022/12/06 09:41:15;;;;;;;12.20;5.25;;;4.30;99.90;;;;;;5111919;28;20105;-82
2022/12/06 09:43:56;;;;;;;13.45;6.55;;;4.30;99.90;;;;;;5111801;28;20055;-81
2022/12/06 09:46:40;;;;;;;13.05;6.22;;;4.30;99.90;;;;;;5099608;28;20127;-82
2022/12/06 09:49:11;;;;;;;14.07;5.43;;;4.40;99.90;;;;;;5094959;28;20100;-82
2022/12/06 09:51:47;;;;;;;10.30;5.30;;;4.50;99.90;;;;;;5095110;28;20051;-81
2022/12/06 09:54:25;;;;;;;11.55;4.70;;;4.50;99.90;;;;;;5095055;28;20047;-82
2022/12/06 09:57:04;;;;;;;11.55;4.85;;;4.50;99.90;;;;;;5112022;28;20096;-82
2022/12/06 09:59:41;;;;;;;9.20;4.32;;;4.50;99.90;;;;;;5094952;28;20047;-83
2022/12/06 10:02:31;;;;;;;10.52;4.53;;;4.30;99.90;;;;;;5094934;28;20058;-83
2022/12/06 10:05:32;;;;;;;10.02;3.97;;;4.20;99.90;;;;;;5094901;28;20043;-82
2022/12/06 10:08:10;;;;;;;12.15;3.85;;;4.00;99.90;;;;;;5111930;28;20039;-82
2022/12/06 10:10:41;;;;;;;13.02;5.40;;;3.90;99.90;;;;;;5088456;28;20090;-82
2022/12/06 10:13:21;;;;;;;9.80;4.90;;;3.90;99.90;;;;;;5094601;28;20447;-82
2022/12/06 10:16:09;;;;;;;11.30;4.65;;;4.00;99.90;;;;;;5104163;28;20039;-83
2022/12/06 10:18:46;;;;;;;8.65;4.60;;;4.00;99.90;;;;;;5110804;28;20043;-82
2022/12/06 10:21:36;;;;;;;8.88;3.88;;;4.00;99.90;;;;;;5111950;28;20051;-82
2022/12/06 10:24:19;;;;;;;12.25;3.60;;;4.10;99.90;;;;;;5110085;28;20048;-83
2022/12/06 10:26:54;;;;;;;8.13;4.25;;;4.20;99.90;;;;;;5111084;28;20139;-82
2022/12/06 10:29:31;;;;;;;8.88;3.92;;;4.20;99.90;;;;;;5094275;28;20051;-82
2022/12/06 10:32:03;;;;;;;9.88;3.80;;;4.30;99.90;;;;;;5111685;28;20044;-82
2022/12/06 10:34:34;;;;;;;6.70;4.53;;;4.20;99.90;;;;;;5111283;28;20050;-82
2022/12/06 10:37:15;;;;;;;7.72;4.72;;;4.20;99.90;;;;;;5110955;28;20047;-81
2022/12/06 10:39:50;;;;;;;8.82;4.65;;;4.10;99.90;;;;;;5105142;27;20047;-80
2022/12/06 10:42:25;;;;;;;9.80;3.53;;;4.10;99.90;;;;;;5096887;27;20047;-82
2022/12/06 10:49:01;;;;;;;9.07;3.40;;;4.20;99.90;;;;;;5113970;27;20046;-82
2022/12/06 10:51:44;;;;;;;8.65;3.80;;;4.20;99.90;;;;;;5087392;27;20063;-82
2022/12/06 10:54:33;;;;;;;8.60;3.90;;;4.20;99.90;;;;;;5114494;27;20051;-83
2022/12/06 10:57:06;;;;;;;9.43;4.32;;;4.30;99.90;;;;;;5096957;27;20055;-82
2022/12/06 11:00:11;;;;;;;7.70;3.70;;;4.30;99.90;;;;;;5114322;27;20035;-82
2022/12/06 11:02:40;;;;;;;5.55;3.45;;;4.50;99.90;;;;;;5114178;27;20043;-83
2022/12/06 11:05:29;;;;;;;7.57;3.55;;;4.60;99.90;;;;;;5113441;27;20133;-82
2022/12/06 11:08:34;;;;;;;9.98;3.17;;;5.00;99.90;;;;;;5084586;27;20856;-82
2022/12/06 11:11:03;;;;;;;7.53;3.45;;;5.20;99.90;;;;;;5094386;27;20119;-82
2022/12/06 11:13:55;;;;;;;5.68;2.85;;;5.30;99.90;;;;;;5096686;27;20047;-82
2022/12/06 11:16:29;;;;;;;5.88;3.22;;;5.30;99.90;;;;;;5098846;27;20047;-83
2022/12/06 11:19:01;;;;;;;4.57;2.90;;;5.30;99.90;;;;;;5113553;27;20047;-82
2022/12/06 11:21:43;;;;;;;8.70;3.33;;;5.10;99.90;;;;;;5088247;27;20875;-82
2022/12/06 11:24:21;;;;;;;4.30;2.63;;;5.00;99.90;;;;;;5087094;28;20412;-82
2022/12/06 11:27:03;;;;;;;9.90;3.47;;;4.90;99.90;;;;;;5095923;27;20050;-82
2022/12/06 11:29:29;;;;;;;5.97;3.28;;;5.00;99.90;;;;;;5096114;27;20039;-82
2022/12/06 11:32:00;;;;;;;9.50;3.10;;;5.10;99.90;;;;;;5096698;27;20424;-82
2022/12/06 11:34:45;;;;;;;5.72;2.90;;;5.40;99.90;;;;;;5113329;27;20116;-82
2022/12/06 11:37:18;;;;;;;8.15;3.42;;;5.50;99.90;;;;;;5097090;27;20478;-83
2022/12/06 11:39:47;;;;;;;7.80;3.20;;;5.60;99.90;;;;;;5096068;27;20047;-83
2022/12/06 11:42:17;;;;;;;6.75;3.33;;;5.60;99.90;;;;;;5113259;27;20184;-82
2022/12/06 11:44:50;;;;;;;5.78;3.40;;;5.50;99.90;;;;;;5100058;27;20502;-84
2022/12/06 11:47:20;;;;;;;6.43;2.95;;;5.40;99.90;;;;;;5113540;27;20047;-83
2022/12/06 11:49:49;;;;;;;5.05;3.05;;;5.40;99.90;;;;;;5112299;27;20084;-82
2022/12/06 11:52:26;;;;;;;10.30;4.13;;;5.40;99.90;;;;;;5095439;27;20051;-82
2022/12/06 11:54:57;;;;;;;4.53;2.65;;;5.40;99.90;;;;;;5112760;27;20092;-82
2022/12/06 11:57:29;;;;;;;4.65;2.83;;;5.20;99.90;;;;;;5113362;27;20082;-83
2022/12/06 12:00:11;;;;;;;4.25;2.65;;;5.20;99.90;;;;;;5083165;28;20051;-82
2022/12/06 12:02:37;;;;;;;5.28;3.33;;;5.20;99.90;;;;;;5113657;27;20479;-83
2022/12/06 12:05:13;;;;;;;7.57;2.90;;;5.20;99.90;;;;;;5094404;27;20055;-82
2022/12/06 12:07:40;;;;;;;3.97;2.55;;;5.30;99.90;;;;;;5112962;27;20043;-83
2022/12/06 12:10:34;;;;;;;5.43;2.40;;;5.30;99.90;;;;;;5106103;27;20069;-80
2022/12/06 12:15:59;;;;;;;4.97;2.55;;;5.40;99.90;;;;;;5112418;27;20090;-80
2022/12/06 12:18:34;;;;;;;7.55;3.67;;;5.40;99.90;;;;;;5112519;27;20047;-81
2022/12/06 12:21:01;;;;;;;7.53;2.50;;;5.40;99.90;;;;;;5112276;27;20130;-82
2022/12/06 12:23:30;;;;;;;7.65;3.03;;;5.30;99.90;;;;;;5095522;27;20035;-84
2022/12/06 12:26:14;;;;;;;5.68;3.08;;;5.20;99.90;;;;;;5095151;27;20058;-83
2022/12/06 12:28:41;;;;;;;6.65;4.22;;;5.20;99.90;;;;;;5091821;27;20043;-83
2022/12/06 12:31:23;;;;;;;8.93;3.78;;;5.10;99.90;;;;;;5094501;27;20078;-82
2022/12/06 12:34:13;;;;;;;6.60;3.10;;;5.00;99.90;;;;;;5086170;27;20129;-87
2022/12/06 12:36:47;;;;;;;6.13;3.05;;;4.90;99.90;;;;;;5094424;27;20054;-83
2022/12/06 12:39:35;;;;;;;6.65;3.10;;;4.90;99.90;;;;;;5086225;27;20040;-83
2022/12/06 12:42:02;;;;;;;5.47;2.90;;;4.90;99.90;;;;;;5102230;28;20059;-83
2022/12/06 12:44:31;;;;;;;5.82;2.90;;;4.90;99.90;;;;;;5089311;28;20059;-83
2022/12/06 12:47:14;;;;;;;8.95;2.78;;;5.00;99.90;;;;;;5091292;28;20047;-83
2022/12/06 12:49:40;;;;;;;4.60;2.50;;;5.00;99.90;;;;;;5083249;28;20055;-83
2022/12/06 12:52:27;;;;;;;3.83;2.47;;;5.10;99.90;;;;;;5108328;28;20409;-83
2022/12/06 12:55:20;;;;;;;6.05;2.72;;;5.20;99.90;;;;;;5108294;28;20048;-85
2022/12/06 12:57:55;;;;;;;3.45;2.20;;;5.40;94.50;;;;;;5103807;28;20062;-83
2022/12/06 13:00:42;;;;;;;5.18;2.30;;;5.60;54.70;;;;;;5108093;28;20043;-83
2022/12/06 13:03:20;;;;;;;4.40;2.05;;;5.80;38.30;;;;;;5082010;28;20051;-81
2022/12/06 13:05:48;;;;;;;6.05;2.80;;;5.90;16.80;;;;;;5105726;28;20523;-81
2022/12/06 13:08:25;;;;;;;5.53;2.13;;;6.10;12.80;;;;;;5082513;28;20051;-80
2022/12/06 13:10:54;;;;;;;5.00;2.13;;;6.10;1.60;;;;;;5088370;28;20106;-80
2022/12/06 13:13:38;;;;;;;3.58;2.00;;;6.10;11.20;;;;;;5081085;28;20149;-79
2022/12/06 13:16:09;;;;;;;6.22;2.10;;;6.00;22.90;;;;;;5089521;28;20088;-81
2022/12/06 13:18:43;;;;;;;4.10;2.60;;;6.00;1.00;;;;;;5091709;28;20062;-80
2022/12/06 13:21:18;;;;;;;3.95;2.10;;;6.00;20.90;;;;;;5107406;28;20039;-80
2022/12/06 13:23:45;;;;;;;4.95;2.15;;;6.00;23.60;;;;;;5078919;28;20455;-80
2022/12/06 13:26:32;;;;;;;3.83;2.00;;;5.80;19.70;;;;;;5090762;28;20558;-81
2022/12/06 13:28:59;;;;;;;;;;;5.80;3.70;;;;;;5081706;28;20044;-82
2022/12/06 13:31:34;;;;;;;3.58;1.85;;;5.70;1.00;;;;;;5105311;28;19934;-80
2022/12/06 13:34:25;;;;;;;6.05;2.45;;;5.60;1.70;;;;;;5079815;28;20136;-80
2022/12/06 13:36:51;;;;;;;8.43;3.72;;;5.50;21.30;;;;;;5097050;28;20051;-80
2022/12/06 13:39:32;;;;;;;8.13;3.22;;;5.60;40.70;;;;;;5105935;28;20621;-80